sensor_id;sensor_type;location;lat;lon;timestamp;temperature;humidity
26186;DHT22;20067;48.764;9.176;2022-12-18T00:01:57;-6.30;91.30
26186;DHT22;20067;48.764;9.176;2022-12-18T00:04:26;-6.40;91.30
26186;DHT22;20067;48.764;9.176;2022-12-18T00:06:53;-6.40;91.30
26186;DHT22;20067;48.764;9.176;2022-12-18T00:09:19;-6.40;91.30
26186;DHT22;20067;48.764;9.176;2022-12-18T00:11:45;-6.40;91.30
26186;DHT22;20067;48.764;9.176;2022-12-18T00:14:12;-6.50;91.30
26186;DHT22;20067;48.764;9.176;2022-12-18T00:16:38;-6.40;91.30
26186;DHT22;20067;48.764;9.176;2022-12-18T00:19:04;-6.40;91.30
26186;DHT22;20067;48.764;9.176;2022-12-18T00:21:31;-6.30;91.30
26186;DHT22;20067;48.764;9.176;2022-12-18T00:23:58;-6.30;91.30
26186;DHT22;20067;48.764;9.176;2022-12-18T00:26:27;-6.40;91.30
26186;DHT22;20067;48.764;9.176;2022-12-18T00:28:54;-6.40;91.30
26186;DHT22;20067;48.764;9.176;2022-12-18T00:31:23;-6.30;91.30
26186;DHT22;20067;48.764;9.176;2022-12-18T00:33:49;-6.30;91.30
26186;DHT22;20067;48.764;9.176;2022-12-18T00:36:18;-6.30;91.30
26186;DHT22;20067;48.764;9.176;2022-12-18T00:38:55;-6.30;91.30
26186;DHT22;20067;48.764;9.176;2022-12-18T00:41:21;-6.30;91.30
26186;DHT22;20067;48.764;9.176;2022-12-18T00:44:07;-6.30;91.30
26186;DHT22;20067;48.764;9.176;2022-12-18T00:46:32;-6.30;91.30
26186;DHT22;20067;48.764;9.176;2022-12-18T00:48:58;-6.30;91.30
26186;DHT22;20067;48.764;9.176;2022-12-18T00:51:24;-6.30;91.30
26186;DHT22;20067;48.764;9.176;2022-12-18T00:53:51;-6.30;91.30
26186;DHT22;20067;48.764;9.176;2022-12-18T00:56:17;-6.20;91.30
26186;DHT22;20067;48.764;9.176;2022-12-18T00:58:42;-6.30;91.30
26186;DHT22;20067;48.764;9.176;2022-12-18T01:01:08;-6.30;91.30
26186;DHT22;20067;48.764;9.176;2022-12-18T01:03:34;-6.30;91.30
26186;DHT22;20067;48.764;9.176;2022-12-18T01:06:04;-6.20;91.30
26186;DHT22;20067;48.764;9.176;2022-12-18T01:08:30;-6.20;91.30
26186;DHT22;20067;48.764;9.176;2022-12-18T01:10:55;-6.20;91.30
26186;DHT22;20067;48.764;9.176;2022-12-18T01:13:21;-6.20;91.30
26186;DHT22;20067;48.764;9.176;2022-12-18T01:15:50;-6.20;91.30
26186;DHT22;20067;48.764;9.176;2022-12-18T01:18:16;-6.30;91.30
26186;DHT22;20067;48.764;9.176;2022-12-18T01:20:41;-6.30;91.30
26186;DHT22;20067;48.764;9.176;2022-12-18T01:23:07;-6.10;91.30
26186;DHT22;20067;48.764;9.176;2022-12-18T01:25:35;-6.20;91.30
26186;DHT22;20067;48.764;9.176;2022-12-18T01:28:01;-6.20;91.30
26186;DHT22;20067;48.764;9.176;2022-12-18T01:30:27;-6.20;91.30
26186;DHT22;20067;48.764;9.176;2022-12-18T01:32:54;-6.30;91.30
26186;DHT22;20067;48.764;9.176;2022-12-18T01:35:20;-6.30;91.30
26186;DHT22;20067;48.764;9.176;2022-12-18T01:37:46;-6.30;91.30
26186;DHT22;20067;48.764;9.176;2022-12-18T01:40:12;-6.30;91.30
26186;DHT22;20067;48.764;9.176;2022-12-18T01:42:37;-6.30;91.30
26186;DHT22;20067;48.764;9.176;2022-12-18T01:52:38;-6.20;91.30
26186;DHT22;20067;48.764;9.176;2022-12-18T01:55:06;-6.30;91.30
26186;DHT22;20067;48.764;9.176;2022-12-18T01:57:33;-6.20;91.30
26186;DHT22;20067;48.764;9.176;2022-12-18T02:00:07;-6.30;91.30
26186;DHT22;20067;48.764;9.176;2022-12-18T02:02:33;-6.30;91.30
26186;DHT22;20067;48.764;9.176;2022-12-18T02:04:59;-6.20;91.30
26186;DHT22;20067;48.764;9.176;2022-12-18T02:07:50;-6.20;91.30
26186;DHT22;20067;48.764;9.176;2022-12-18T02:10:29;-6.20;91.30
26186;DHT22;20067;48.764;9.176;2022-12-18T02:15:39;-6.20;91.30
26186;DHT22;20067;48.764;9.176;2022-12-18T02:18:13;-6.30;91.30
26186;DHT22;20067;48.764;9.176;2022-12-18T02:23:50;-6.40;91.30
26186;DHT22;20067;48.764;9.176;2022-12-18T02:26:37;-6.30;91.30
26186;DHT22;20067;48.764;9.176;2022-12-18T02:29:18;-6.30;91.30
26186;DHT22;20067;48.764;9.176;2022-12-18T02:31:52;-6.30;91.30
26186;DHT22;20067;48.764;9.176;2022-12-18T02:34:22;-6.20;91.30
26186;DHT22;20067;48.764;9.176;2022-12-18T02:36:50;-6.10;91.30
26186;DHT22;20067;48.764;9.176;2022-12-18T02:39:17;-6.10;91.30
26186;DHT22;20067;48.764;9.176;2022-12-18T02:41:43;-6.20;91.30
26186;DHT22;20067;48.764;9.176;2022-12-18T02:44:11;-6.20;91.30
26186;DHT22;20067;48.764;9.176;2022-12-18T02:46:45;-6.10;91.30
26186;DHT22;20067;48.764;9.176;2022-12-18T02:50:10;-6.20;91.30
26186;DHT22;20067;48.764;9.176;2022-12-18T02:57:49;-6.20;91.30
26186;DHT22;20067;48.764;9.176;2022-12-18T03:02:54;-6.10;91.30
26186;DHT22;20067;48.764;9.176;2022-12-18T03:05:32;-6.10;91.30
26186;DHT22;20067;48.764;9.176;2022-12-18T03:08:12;-6.10;91.30
26186;DHT22;20067;48.764;9.176;2022-12-18T03:10:45;-6.10;91.30
26186;DHT22;20067;48.764;9.176;2022-12-18T03:13:20;-6.00;91.30
26186;DHT22;20067;48.764;9.176;2022-12-18T03:15:50;-6.00;91.30
26186;DHT22;20067;48.764;9.176;2022-12-18T03:18:42;-5.90;91.30
26186;DHT22;20067;48.764;9.176;2022-12-18T03:21:11;-5.90;91.30
26186;DHT22;20067;48.764;9.176;2022-12-18T03:23:46;-5.90;91.30
26186;DHT22;20067;48.764;9.176;2022-12-18T03:26:16;-5.90;91.30
26186;DHT22;20067;48.764;9.176;2022-12-18T03:28:47;-6.00;91.30
26186;DHT22;20067;48.764;9.176;2022-12-18T03:31:14;-6.00;91.30
26186;DHT22;20067;48.764;9.176;2022-12-18T03:33:53;-5.90;91.30
26186;DHT22;20067;48.764;9.176;2022-12-18T03:36:19;-6.00;91.30
26186;DHT22;20067;48.764;9.176;2022-12-18T03:38:45;-6.10;91.30
26186;DHT22;20067;48.764;9.176;2022-12-18T03:44:20;-6.30;91.30
26186;DHT22;20067;48.764;9.176;2022-12-18T03:52:24;-6.40;91.30
26186;DHT22;20067;48.764;9.176;2022-12-18T03:54:52;-6.40;91.30
26186;DHT22;20067;48.764;9.176;2022-12-18T03:57:21;-6.30;91.30
26186;DHT22;20067;48.764;9.176;2022-12-18T03:59:52;-6.40;91.30
26186;DHT22;20067;48.764;9.176;2022-12-18T04:02:21;-6.40;91.30
26186;DHT22;20067;48.764;9.176;2022-12-18T04:04:51;-6.40;91.30
26186;DHT22;20067;48.764;9.176;2022-12-18T04:07:18;-6.30;91.30
26186;DHT22;20067;48.764;9.176;2022-12-18T04:09:45;-6.30;91.30
26186;DHT22;20067;48.764;9.176;2022-12-18T04:12:11;-6.40;91.30
26186;DHT22;20067;48.764;9.176;2022-12-18T04:14:37;-6.50;91.30
26186;DHT22;20067;48.764;9.176;2022-12-18T04:17:03;-6.60;91.30
26186;DHT22;20067;48.764;9.176;2022-12-18T04:19:28;-6.70;91.30
26186;DHT22;20067;48.764;9.176;2022-12-18T04:21:54;-6.80;91.30
26186;DHT22;20067;48.764;9.176;2022-12-18T04:24:20;-6.80;91.30
26186;DHT22;20067;48.764;9.176;2022-12-18T04:26:45;-6.80;91.30
26186;DHT22;20067;48.764;9.176;2022-12-18T04:29:11;-6.80;91.30
26186;DHT22;20067;48.764;9.176;2022-12-18T04:31:37;-7.00;91.30
26186;DHT22;20067;48.764;9.176;2022-12-18T04:34:03;-7.00;91.30
26186;DHT22;20067;48.764;9.176;2022-12-18T04:36:28;-6.80;91.30
26186;DHT22;20067;48.764;9.176;2022-12-18T04:38:54;-6.90;91.30
26186;DHT22;20067;48.764;9.176;2022-12-18T04:41:20;-7.00;91.30
26186;DHT22;20067;48.764;9.176;2022-12-18T04:43:45;-7.00;91.30
26186;DHT22;20067;48.764;9.176;2022-12-18T04:46:11;-7.20;91.30
26186;DHT22;20067;48.764;9.176;2022-12-18T04:48:37;-7.30;91.30
26186;DHT22;20067;48.764;9.176;2022-12-18T04:51:04;-7.30;91.30
26186;DHT22;20067;48.764;9.176;2022-12-18T04:53:29;-7.40;91.30
26186;DHT22;20067;48.764;9.176;2022-12-18T04:56:08;-7.40;91.30
26186;DHT22;20067;48.764;9.176;2022-12-18T04:58:35;-7.40;91.30
26186;DHT22;20067;48.764;9.176;2022-12-18T05:01:01;-7.40;91.30
26186;DHT22;20067;48.764;9.176;2022-12-18T05:03:27;-7.40;91.30
26186;DHT22;20067;48.764;9.176;2022-12-18T05:05:52;-7.50;91.30
26186;DHT22;20067;48.764;9.176;2022-12-18T05:08:18;-7.40;91.30
26186;DHT22;20067;48.764;9.176;2022-12-18T05:10:44;-7.40;91.30
26186;DHT22;20067;48.764;9.176;2022-12-18T05:13:10;-7.30;91.30
26186;DHT22;20067;48.764;9.176;2022-12-18T05:15:36;-7.20;91.30
26186;DHT22;20067;48.764;9.176;2022-12-18T05:18:02;-7.10;91.30
26186;DHT22;20067;48.764;9.176;2022-12-18T05:20:29;-7.10;91.30
26186;DHT22;20067;48.764;9.176;2022-12-18T05:22:55;-7.00;91.30
26186;DHT22;20067;48.764;9.176;2022-12-18T05:25:21;-7.00;91.30
26186;DHT22;20067;48.764;9.176;2022-12-18T05:27:47;-7.00;91.30
26186;DHT22;20067;48.764;9.176;2022-12-18T05:30:13;-7.00;91.30
26186;DHT22;20067;48.764;9.176;2022-12-18T05:32:39;-7.00;91.30
26186;DHT22;20067;48.764;9.176;2022-12-18T05:35:07;-7.00;91.30
26186;DHT22;20067;48.764;9.176;2022-12-18T05:37:34;-6.90;91.30
26186;DHT22;20067;48.764;9.176;2022-12-18T05:39:59;-6.90;91.30
26186;DHT22;20067;48.764;9.176;2022-12-18T05:42:25;-6.90;91.30
26186;DHT22;20067;48.764;9.176;2022-12-18T05:44:51;-6.90;91.30
26186;DHT22;20067;48.764;9.176;2022-12-18T05:47:16;-6.90;91.30
26186;DHT22;20067;48.764;9.176;2022-12-18T05:49:42;-6.90;91.30
26186;DHT22;20067;48.764;9.176;2022-12-18T05:52:08;-6.90;91.30
26186;DHT22;20067;48.764;9.176;2022-12-18T05:54:34;-6.90;91.30
26186;DHT22;20067;48.764;9.176;2022-12-18T05:57:00;-7.00;91.30
26186;DHT22;20067;48.764;9.176;2022-12-18T05:59:25;-7.10;91.30
26186;DHT22;20067;48.764;9.176;2022-12-18T06:01:51;-7.10;91.30
26186;DHT22;20067;48.764;9.176;2022-12-18T06:04:17;-7.20;91.30
26186;DHT22;20067;48.764;9.176;2022-12-18T06:06:42;-7.20;91.30
26186;DHT22;20067;48.764;9.176;2022-12-18T06:09:08;-7.10;91.30
26186;DHT22;20067;48.764;9.176;2022-12-18T06:11:36;-7.20;91.30
26186;DHT22;20067;48.764;9.176;2022-12-18T06:14:04;-7.20;91.30
26186;DHT22;20067;48.764;9.176;2022-12-18T06:16:30;-7.20;91.30
26186;DHT22;20067;48.764;9.176;2022-12-18T06:18:57;-7.20;91.30
26186;DHT22;20067;48.764;9.176;2022-12-18T06:21:22;-7.20;91.30
26186;DHT22;20067;48.764;9.176;2022-12-18T06:23:48;-7.20;91.30
26186;DHT22;20067;48.764;9.176;2022-12-18T06:26:14;-7.20;91.30
26186;DHT22;20067;48.764;9.176;2022-12-18T06:28:40;-7.40;91.30
26186;DHT22;20067;48.764;9.176;2022-12-18T06:31:06;-7.40;91.30
26186;DHT22;20067;48.764;9.176;2022-12-18T06:33:33;-7.60;91.30
26186;DHT22;20067;48.764;9.176;2022-12-18T06:36:02;-7.70;91.30
26186;DHT22;20067;48.764;9.176;2022-12-18T06:38:28;-7.70;91.30
26186;DHT22;20067;48.764;9.176;2022-12-18T06:40:54;-7.60;91.30
26186;DHT22;20067;48.764;9.176;2022-12-18T06:43:20;-7.70;91.30
26186;DHT22;20067;48.764;9.176;2022-12-18T06:45:45;-7.60;91.30
26186;DHT22;20067;48.764;9.176;2022-12-18T06:48:14;-7.70;91.30
26186;DHT22;20067;48.764;9.176;2022-12-18T06:50:42;-7.70;91.30
26186;DHT22;20067;48.764;9.176;2022-12-18T06:53:08;-7.60;91.30
26186;DHT22;20067;48.764;9.176;2022-12-18T06:55:33;-7.70;91.30
26186;DHT22;20067;48.764;9.176;2022-12-18T06:57:59;-7.70;91.30
26186;DHT22;20067;48.764;9.176;2022-12-18T07:00:24;-7.70;91.30
26186;DHT22;20067;48.764;9.176;2022-12-18T07:02:50;-7.70;91.30
26186;DHT22;20067;48.764;9.176;2022-12-18T07:05:15;-7.70;91.30
26186;DHT22;20067;48.764;9.176;2022-12-18T07:07:41;-7.70;91.30
26186;DHT22;20067;48.764;9.176;2022-12-18T07:10:07;-7.60;91.30
26186;DHT22;20067;48.764;9.176;2022-12-18T07:12:32;-7.60;91.30
26186;DHT22;20067;48.764;9.176;2022-12-18T07:14:58;-7.60;91.30
26186;DHT22;20067;48.764;9.176;2022-12-18T07:17:24;-7.60;91.30
26186;DHT22;20067;48.764;9.176;2022-12-18T07:19:49;-7.60;91.30
26186;DHT22;20067;48.764;9.176;2022-12-18T07:22:15;-7.60;91.30
26186;DHT22;20067;48.764;9.176;2022-12-18T07:24:40;-7.60;91.30
26186;DHT22;20067;48.764;9.176;2022-12-18T07:27:06;-7.50;91.30
26186;DHT22;20067;48.764;9.176;2022-12-18T07:29:31;-7.50;91.30
26186;DHT22;20067;48.764;9.176;2022-12-18T07:31:57;-7.50;91.30
26186;DHT22;20067;48.764;9.176;2022-12-18T07:34:22;-7.40;91.30
26186;DHT22;20067;48.764;9.176;2022-12-18T07:36:48;-7.40;91.30
26186;DHT22;20067;48.764;9.176;2022-12-18T07:39:13;-7.40;91.30
26186;DHT22;20067;48.764;9.176;2022-12-18T07:41:39;-7.50;91.30
26186;DHT22;20067;48.764;9.176;2022-12-18T07:44:11;-7.50;91.30
26186;DHT22;20067;48.764;9.176;2022-12-18T07:46:37;-7.50;91.30
26186;DHT22;20067;48.764;9.176;2022-12-18T07:49:03;-7.50;91.30
26186;DHT22;20067;48.764;9.176;2022-12-18T07:51:28;-7.50;91.30
26186;DHT22;20067;48.764;9.176;2022-12-18T07:53:54;-7.50;91.30
26186;DHT22;20067;48.764;9.176;2022-12-18T07:56:20;-7.50;91.30
26186;DHT22;20067;48.764;9.176;2022-12-18T07:58:46;-7.40;91.30
26186;DHT22;20067;48.764;9.176;2022-12-18T08:01:12;-7.30;91.30
26186;DHT22;20067;48.764;9.176;2022-12-18T08:03:39;-7.30;91.30
26186;DHT22;20067;48.764;9.176;2022-12-18T08:06:07;-7.30;91.30
26186;DHT22;20067;48.764;9.176;2022-12-18T08:08:34;-7.30;91.30
26186;DHT22;20067;48.764;9.176;2022-12-18T08:11:00;-7.20;91.30
26186;DHT22;20067;48.764;9.176;2022-12-18T08:13:27;-7.20;91.30
26186;DHT22;20067;48.764;9.176;2022-12-18T08:16:03;-7.10;91.30
26186;DHT22;20067;48.764;9.176;2022-12-18T08:18:31;-7.00;91.30
26186;DHT22;20067;48.764;9.176;2022-12-18T08:20:57;-7.00;91.30
26186;DHT22;20067;48.764;9.176;2022-12-18T08:23:22;-6.90;91.30
26186;DHT22;20067;48.764;9.176;2022-12-18T08:25:48;-6.90;91.30
26186;DHT22;20067;48.764;9.176;2022-12-18T08:28:13;-6.90;91.30
26186;DHT22;20067;48.764;9.176;2022-12-18T08:30:39;-6.80;91.30
26186;DHT22;20067;48.764;9.176;2022-12-18T08:33:05;-6.70;91.30
26186;DHT22;20067;48.764;9.176;2022-12-18T08:35:35;-6.70;91.30
26186;DHT22;20067;48.764;9.176;2022-12-18T08:38:01;-6.60;91.30
26186;DHT22;20067;48.764;9.176;2022-12-18T08:40:26;-6.50;91.30
26186;DHT22;20067;48.764;9.176;2022-12-18T08:42:52;-6.50;91.30
26186;DHT22;20067;48.764;9.176;2022-12-18T08:45:36;-6.50;91.30
26186;DHT22;20067;48.764;9.176;2022-12-18T08:48:02;-6.40;91.30
26186;DHT22;20067;48.764;9.176;2022-12-18T08:50:28;-6.40;91.30
26186;DHT22;20067;48.764;9.176;2022-12-18T08:52:53;-6.30;91.30
26186;DHT22;20067;48.764;9.176;2022-12-18T08:55:19;-6.20;91.30
26186;DHT22;20067;48.764;9.176;2022-12-18T08:57:48;-6.10;91.30
26186;DHT22;20067;48.764;9.176;2022-12-18T09:00:14;-6.20;91.30
26186;DHT22;20067;48.764;9.176;2022-12-18T09:02:40;-6.40;91.30
26186;DHT22;20067;48.764;9.176;2022-12-18T09:05:06;-6.40;91.30
26186;DHT22;20067;48.764;9.176;2022-12-18T09:07:32;-6.30;91.30
26186;DHT22;20067;48.764;9.176;2022-12-18T09:09:57;-6.20;91.30
26186;DHT22;20067;48.764;9.176;2022-12-18T09:12:23;-6.00;91.30
26186;DHT22;20067;48.764;9.176;2022-12-18T09:14:49;-5.90;91.30
26186;DHT22;20067;48.764;9.176;2022-12-18T09:17:14;-5.80;91.30
26186;DHT22;20067;48.764;9.176;2022-12-18T09:19:40;-5.70;91.30
26186;DHT22;20067;48.764;9.176;2022-12-18T09:22:05;-5.60;91.30
26186;DHT22;20067;48.764;9.176;2022-12-18T09:24:31;-5.40;91.30
26186;DHT22;20067;48.764;9.176;2022-12-18T09:26:57;-5.60;91.30
26186;DHT22;20067;48.764;9.176;2022-12-18T09:29:22;-5.60;91.30
26186;DHT22;20067;48.764;9.176;2022-12-18T09:31:48;-5.60;91.30
26186;DHT22;20067;48.764;9.176;2022-12-18T09:34:15;-5.50;91.30
26186;DHT22;20067;48.764;9.176;2022-12-18T09:36:40;-5.50;91.30
26186;DHT22;20067;48.764;9.176;2022-12-18T09:39:06;-5.40;91.30
26186;DHT22;20067;48.764;9.176;2022-12-18T09:41:43;-5.40;91.30
26186;DHT22;20067;48.764;9.176;2022-12-18T09:47:03;-4.60;91.30
26186;DHT22;20067;48.764;9.176;2022-12-18T09:49:33;-3.70;91.30
26186;DHT22;20067;48.764;9.176;2022-12-18T09:52:08;-2.90;90.20
26186;DHT22;20067;48.764;9.176;2022-12-18T09:54:41;-2.70;88.00
26186;DHT22;20067;48.764;9.176;2022-12-18T09:57:15;-2.60;87.10
26186;DHT22;20067;48.764;9.176;2022-12-18T09:59:46;-2.20;86.80
26186;DHT22;20067;48.764;9.176;2022-12-18T10:02:23;-1.90;85.90
26186;DHT22;20067;48.764;9.176;2022-12-18T10:05:02;-1.40;84.90
26186;DHT22;20067;48.764;9.176;2022-12-18T10:07:59;-1.30;83.90
26186;DHT22;20067;48.764;9.176;2022-12-18T10:10:49;-0.90;82.80
26186;DHT22;20067;48.764;9.176;2022-12-18T10:13:23;-0.70;82.00
26186;DHT22;20067;48.764;9.176;2022-12-18T10:16:08;-0.20;81.70
26186;DHT22;20067;48.764;9.176;2022-12-18T10:21:23;1.00;78.20
26186;DHT22;20067;48.764;9.176;2022-12-18T10:24:12;1.90;76.80
26186;DHT22;20067;48.764;9.176;2022-12-18T10:26:41;2.80;74.30
26186;DHT22;20067;48.764;9.176;2022-12-18T10:29:12;3.60;72.90
26186;DHT22;20067;48.764;9.176;2022-12-18T10:31:38;4.10;70.40
26186;DHT22;20067;48.764;9.176;2022-12-18T10:34:03;4.30;70.80
26186;DHT22;20067;48.764;9.176;2022-12-18T10:36:29;4.30;69.50
26186;DHT22;20067;48.764;9.176;2022-12-18T10:39:19;4.90;68.50
26186;DHT22;20067;48.764;9.176;2022-12-18T10:41:44;4.70;67.00
26186;DHT22;20067;48.764;9.176;2022-12-18T10:44:20;5.00;68.20
26186;DHT22;20067;48.764;9.176;2022-12-18T10:46:48;5.30;67.80
26186;DHT22;20067;48.764;9.176;2022-12-18T10:49:27;6.00;66.50
26186;DHT22;20067;48.764;9.176;2022-12-18T10:54:37;5.40;67.30
26186;DHT22;20067;48.764;9.176;2022-12-18T10:59:56;6.30;65.70
26186;DHT22;20067;48.764;9.176;2022-12-18T11:02:48;6.60;64.20
26186;DHT22;20067;48.764;9.176;2022-12-18T11:05:32;6.10;65.40
26186;DHT22;20067;48.764;9.176;2022-12-18T11:08:00;5.00;67.10
26186;DHT22;20067;48.764;9.176;2022-12-18T11:10:52;4.80;67.70
26186;DHT22;20067;48.764;9.176;2022-12-18T11:13:23;5.70;66.80
26186;DHT22;20067;48.764;9.176;2022-12-18T11:15:50;6.50;65.00
26186;DHT22;20067;48.764;9.176;2022-12-18T11:18:22;6.50;64.60
26186;DHT22;20067;48.764;9.176;2022-12-18T11:20:52;6.60;65.00
26186;DHT22;20067;48.764;9.176;2022-12-18T11:23:19;7.50;63.70
26186;DHT22;20067;48.764;9.176;2022-12-18T11:25:59;7.40;61.80
26186;DHT22;20067;48.764;9.176;2022-12-18T11:28:52;7.00;63.30
26186;DHT22;20067;48.764;9.176;2022-12-18T11:31:28;5.00;66.40
26186;DHT22;20067;48.764;9.176;2022-12-18T11:34:10;1.70;75.50
26186;DHT22;20067;48.764;9.176;2022-12-18T11:36:46;1.00;79.10
26186;DHT22;20067;48.764;9.176;2022-12-18T11:42:19;0.60;80.50
26186;DHT22;20067;48.764;9.176;2022-12-18T11:44:52;-0.40;83.30
26186;DHT22;20067;48.764;9.176;2022-12-18T11:47:37;-0.80;85.30
26186;DHT22;20067;48.764;9.176;2022-12-18T11:50:17;-1.20;87.10
26186;DHT22;20067;48.764;9.176;2022-12-18T11:52:44;-1.20;87.80
26186;DHT22;20067;48.764;9.176;2022-12-18T11:55:35;-1.30;87.80
26186;DHT22;20067;48.764;9.176;2022-12-18T12:00:30;-1.70;89.40
26186;DHT22;20067;48.764;9.176;2022-12-18T12:03:17;-1.50;89.30
26186;DHT22;20067;48.764;9.176;2022-12-18T12:08:41;-1.70;89.50
26186;DHT22;20067;48.764;9.176;2022-12-18T12:11:30;-1.70;89.80
26186;DHT22;20067;48.764;9.176;2022-12-18T12:30:20;-1.50;89.70
26186;DHT22;20067;48.764;9.176;2022-12-18T12:38:32;-1.70;90.60
26186;DHT22;20067;48.764;9.176;2022-12-18T12:41:03;-1.60;90.50
26186;DHT22;20067;48.764;9.176;2022-12-18T12:43:37;-1.60;90.50
26186;DHT22;20067;48.764;9.176;2022-12-18T12:46:07;-1.60;90.40
26186;DHT22;20067;48.764;9.176;2022-12-18T12:48:44;-1.60;90.80
26186;DHT22;20067;48.764;9.176;2022-12-18T12:53:41;-1.40;90.30
26186;DHT22;20067;48.764;9.176;2022-12-18T12:56:10;-1.30;90.40
26186;DHT22;20067;48.764;9.176;2022-12-18T12:59:02;-1.30;90.00
26186;DHT22;20067;48.764;9.176;2022-12-18T13:04:42;-1.10;89.70
26186;DHT22;20067;48.764;9.176;2022-12-18T13:13:08;-0.60;88.10
26186;DHT22;20067;48.764;9.176;2022-12-18T13:15:45;-0.60;88.00
26186;DHT22;20067;48.764;9.176;2022-12-18T13:18:20;-0.50;87.90
26186;DHT22;20067;48.764;9.176;2022-12-18T13:31:12;-0.20;87.60
26186;DHT22;20067;48.764;9.176;2022-12-18T13:33:44;-0.10;87.60
26186;DHT22;20067;48.764;9.176;2022-12-18T13:41:42;0.10;87.10
26186;DHT22;20067;48.764;9.176;2022-12-18T13:44:34;0.20;87.10
26186;DHT22;20067;48.764;9.176;2022-12-18T13:47:02;-0.10;87.20
26186;DHT22;20067;48.764;9.176;2022-12-18T13:49:43;-0.30;88.60
26186;DHT22;20067;48.764;9.176;2022-12-18T13:52:33;-0.40;89.70
26186;DHT22;20067;48.764;9.176;2022-12-18T13:55:06;-0.40;89.90
26186;DHT22;20067;48.764;9.176;2022-12-18T13:57:37;-0.40;89.80
26186;DHT22;20067;48.764;9.176;2022-12-18T14:00:26;-0.30;90.20
26186;DHT22;20067;48.764;9.176;2022-12-18T14:02:53;-0.30;89.90
26186;DHT22;20067;48.764;9.176;2022-12-18T14:05:36;-0.20;90.00
26186;DHT22;20067;48.764;9.176;2022-12-18T14:08:08;-0.30;90.40
26186;DHT22;20067;48.764;9.176;2022-12-18T14:10:40;-0.40;90.70
26186;DHT22;20067;48.764;9.176;2022-12-18T14:13:09;-0.50;90.70
26186;DHT22;20067;48.764;9.176;2022-12-18T14:15:40;-0.40;91.00
26186;DHT22;20067;48.764;9.176;2022-12-18T14:18:25;-0.30;90.70
26186;DHT22;20067;48.764;9.176;2022-12-18T14:20:55;-0.40;91.10
26186;DHT22;20067;48.764;9.176;2022-12-18T14:23:40;-0.50;91.00
26186;DHT22;20067;48.764;9.176;2022-12-18T14:26:41;-0.60;91.30
26186;DHT22;20067;48.764;9.176;2022-12-18T14:29:28;-0.60;91.30
26186;DHT22;20067;48.764;9.176;2022-12-18T14:32:10;-0.60;91.30
26186;DHT22;20067;48.764;9.176;2022-12-18T14:34:37;-0.60;91.30
26186;DHT22;20067;48.764;9.176;2022-12-18T14:37:03;-0.70;91.30
26186;DHT22;20067;48.764;9.176;2022-12-18T14:39:28;-0.80;91.30
26186;DHT22;20067;48.764;9.176;2022-12-18T14:41:54;-0.80;91.30
26186;DHT22;20067;48.764;9.176;2022-12-18T14:44:20;-0.90;91.30
26186;DHT22;20067;48.764;9.176;2022-12-18T14:46:48;-0.90;91.30
26186;DHT22;20067;48.764;9.176;2022-12-18T14:49:27;-1.00;91.30
26186;DHT22;20067;48.764;9.176;2022-12-18T14:52:03;-1.10;91.30
26186;DHT22;20067;48.764;9.176;2022-12-18T14:54:31;-1.10;91.30
26186;DHT22;20067;48.764;9.176;2022-12-18T14:57:03;-1.20;91.30
26186;DHT22;20067;48.764;9.176;2022-12-18T14:59:30;-1.30;91.30
26186;DHT22;20067;48.764;9.176;2022-12-18T15:04:46;-1.40;91.30
26186;DHT22;20067;48.764;9.176;2022-12-18T15:07:16;-1.40;91.30
26186;DHT22;20067;48.764;9.176;2022-12-18T15:10:15;-1.40;91.30
26186;DHT22;20067;48.764;9.176;2022-12-18T15:12:47;-1.40;91.30
26186;DHT22;20067;48.764;9.176;2022-12-18T15:20:54;-1.60;91.30
26186;DHT22;20067;48.764;9.176;2022-12-18T15:23:38;-1.60;91.30
26186;DHT22;20067;48.764;9.176;2022-12-18T15:26:12;-1.80;91.30
26186;DHT22;20067;48.764;9.176;2022-12-18T15:28:52;-1.80;91.30
26186;DHT22;20067;48.764;9.176;2022-12-18T15:31:29;-1.90;91.30
26186;DHT22;20067;48.764;9.176;2022-12-18T15:36:23;-2.00;91.30
26186;DHT22;20067;48.764;9.176;2022-12-18T15:38:50;-2.00;91.30
26186;DHT22;20067;48.764;9.176;2022-12-18T15:41:18;-1.90;91.30
26186;DHT22;20067;48.764;9.176;2022-12-18T15:43:45;-2.00;91.30
26186;DHT22;20067;48.764;9.176;2022-12-18T15:48:42;-2.00;91.30
26186;DHT22;20067;48.764;9.176;2022-12-18T15:51:14;-2.00;91.30
26186;DHT22;20067;48.764;9.176;2022-12-18T15:53:41;-2.00;91.30
26186;DHT22;20067;48.764;9.176;2022-12-18T15:56:14;-2.00;91.30
26186;DHT22;20067;48.764;9.176;2022-12-18T15:58:59;-2.10;91.30
26186;DHT22;20067;48.764;9.176;2022-12-18T16:01:27;-2.00;91.30
26186;DHT22;20067;48.764;9.176;2022-12-18T16:03:52;-2.10;91.30
26186;DHT22;20067;48.764;9.176;2022-12-18T16:06:19;-2.10;91.30
26186;DHT22;20067;48.764;9.176;2022-12-18T16:08:45;-2.00;91.30
26186;DHT22;20067;48.764;9.176;2022-12-18T16:11:28;-2.00;91.30
26186;DHT22;20067;48.764;9.176;2022-12-18T16:14:27;-2.10;91.30
26186;DHT22;20067;48.764;9.176;2022-12-18T16:16:58;-2.10;91.30
26186;DHT22;20067;48.764;9.176;2022-12-18T16:19:25;-2.10;91.30
26186;DHT22;20067;48.764;9.176;2022-12-18T16:21:54;-2.00;91.30
26186;DHT22;20067;48.764;9.176;2022-12-18T16:24:22;-2.00;91.30
26186;DHT22;20067;48.764;9.176;2022-12-18T16:26:48;-1.90;91.30
26186;DHT22;20067;48.764;9.176;2022-12-18T16:29:14;-1.90;91.30
26186;DHT22;20067;48.764;9.176;2022-12-18T16:31:40;-1.90;91.30
26186;DHT22;20067;48.764;9.176;2022-12-18T16:34:13;-1.70;91.30
26186;DHT22;20067;48.764;9.176;2022-12-18T16:36:40;-1.80;91.30
26186;DHT22;20067;48.764;9.176;2022-12-18T16:39:06;-1.80;91.30
26186;DHT22;20067;48.764;9.176;2022-12-18T16:41:32;-1.80;91.30
26186;DHT22;20067;48.764;9.176;2022-12-18T16:43:58;-1.70;91.30
26186;DHT22;20067;48.764;9.176;2022-12-18T16:46:24;-1.90;91.30
26186;DHT22;20067;48.764;9.176;2022-12-18T16:48:49;-1.90;91.30
26186;DHT22;20067;48.764;9.176;2022-12-18T16:51:15;-1.80;91.30
26186;DHT22;20067;48.764;9.176;2022-12-18T16:53:41;-1.90;91.30
26186;DHT22;20067;48.764;9.176;2022-12-18T16:56:06;-1.90;91.30
26186;DHT22;20067;48.764;9.176;2022-12-18T16:58:32;-2.00;91.30
26186;DHT22;20067;48.764;9.176;2022-12-18T17:00:58;-1.90;91.30
26186;DHT22;20067;48.764;9.176;2022-12-18T17:03:24;-1.90;91.30
26186;DHT22;20067;48.764;9.176;2022-12-18T17:05:50;-1.90;91.30
26186;DHT22;20067;48.764;9.176;2022-12-18T17:08:15;-1.80;91.30
26186;DHT22;20067;48.764;9.176;2022-12-18T17:10:41;-1.80;91.30
26186;DHT22;20067;48.764;9.176;2022-12-18T17:13:06;-1.80;91.30
26186;DHT22;20067;48.764;9.176;2022-12-18T17:15:35;-1.70;91.30
26186;DHT22;20067;48.764;9.176;2022-12-18T17:18:01;-1.90;91.30
26186;DHT22;20067;48.764;9.176;2022-12-18T17:20:27;-1.80;91.30
26186;DHT22;20067;48.764;9.176;2022-12-18T17:22:52;-1.80;91.30
26186;DHT22;20067;48.764;9.176;2022-12-18T17:25:18;-1.70;91.30
26186;DHT22;20067;48.764;9.176;2022-12-18T17:27:43;-1.70;91.30
26186;DHT22;20067;48.764;9.176;2022-12-18T17:30:09;-1.80;91.30
26186;DHT22;20067;48.764;9.176;2022-12-18T17:32:35;-1.60;91.30
26186;DHT22;20067;48.764;9.176;2022-12-18T17:35:01;-1.60;91.30
26186;DHT22;20067;48.764;9.176;2022-12-18T17:37:26;-1.50;91.30
26186;DHT22;20067;48.764;9.176;2022-12-18T17:39:52;-1.60;91.30
26186;DHT22;20067;48.764;9.176;2022-12-18T17:42:18;-1.60;91.30